Terminal Aerodrome Forecast
Issued by NWS

Home | Current Version | Previous Version | Text Only | Print | Product List | Glossary On
Versions: 1 2 3 4 5 6 7 8 9 10 11 12 13 14 15 16 17 18
000
FTUS45 KTFX 290534
TAFGTF
TAF
KGTF 290534Z 2906/3006 23008KT P6SM SCT250
     FM291800 24012G20KT P6SM SCT100 BKN250
     FM300000 23008KT P6SM BKN070 OVC150 PROB30 3000/3006 P6SM -SHRA
      OVC070=

USA.gov is the U.S. government's official web portal to all federal, state and local government web resources and services.